createdAt,value
2022-07-28T00:00:16.760Z,80.2
2022-07-28T00:02:16.865Z,80.3
2022-07-28T00:04:17.125Z,79.9
2022-07-28T00:06:16.791Z,80.0
2022-07-28T00:08:16.764Z,80.4
2022-07-28T00:10:16.783Z,80.6
2022-07-28T00:12:16.792Z,80.7
2022-07-28T00:14:17.120Z,81.0
2022-07-28T00:16:16.893Z,80.7
2022-07-28T00:18:16.789Z,80.3
2022-07-28T00:20:16.792Z,80.1
2022-07-28T00:22:16.821Z,80.0
2022-07-28T00:24:17.317Z,80.0
2022-07-28T00:26:16.766Z,80.0
2022-07-28T00:28:16.795Z,80.0
2022-07-28T00:30:16.800Z,80.0
2022-07-28T00:32:16.810Z,80.4
2022-07-28T00:34:17.388Z,80.7
2022-07-28T00:36:16.803Z,81.1
2022-07-28T00:38:16.810Z,81.2
2022-07-28T00:40:16.794Z,81.5
2022-07-28T00:42:16.822Z,81.7
2022-07-28T00:44:17.146Z,81.8
2022-07-28T00:46:16.919Z,81.8
2022-07-28T00:48:16.822Z,81.9
2022-07-28T00:50:16.816Z,81.6
2022-07-28T00:52:16.823Z,81.8
2022-07-28T00:54:16.927Z,81.8
2022-07-28T00:56:16.812Z,82.4
2022-07-28T00:58:16.836Z,82.4
2022-07-28T01:00:16.811Z,82.5
2022-07-28T01:02:16.940Z,82.3
2022-07-28T01:04:17.392Z,82.3
2022-07-28T01:06:16.856Z,82.3
2022-07-28T01:08:16.912Z,82.2
2022-07-28T01:10:16.847Z,82.5
2022-07-28T01:12:16.861Z,82.9
2022-07-28T01:14:17.408Z,83.5
2022-07-28T01:16:16.910Z,83.6
2022-07-28T01:18:16.838Z,83.7
2022-07-28T01:20:16.851Z,83.8
2022-07-28T01:22:16.863Z,83.8
2022-07-28T01:24:17.317Z,83.9
2022-07-28T01:26:16.863Z,83.9
2022-07-28T01:28:16.861Z,83.8
2022-07-28T01:30:16.875Z,83.6
2022-07-28T01:32:16.882Z,83.8
2022-07-28T01:34:17.410Z,84.0
2022-07-28T01:36:17.142Z,84.1
2022-07-28T01:38:16.876Z,84.5
2022-07-28T01:40:16.879Z,84.7
2022-07-28T01:42:16.932Z,84.9
2022-07-28T01:44:17.354Z,85.2
2022-07-28T01:46:16.965Z,85.3
2022-07-28T01:48:16.876Z,85.3
2022-07-28T01:50:16.883Z,85.8
2022-07-28T01:52:16.900Z,85.8
2022-07-28T01:54:17.307Z,85.8
2022-07-28T01:56:16.880Z,85.8
2022-07-28T01:58:16.894Z,85.8
2022-07-28T02:00:16.884Z,85.8
2022-07-28T02:02:16.920Z,85.7
2022-07-28T02:04:17.295Z,85.6
2022-07-28T02:06:16.895Z,85.3
2022-07-28T02:08:16.898Z,84.8
2022-07-28T02:10:16.893Z,84.6
2022-07-28T02:12:16.903Z,84.7
2022-07-28T02:14:17.615Z,85.1
2022-07-28T02:16:16.931Z,85.2
2022-07-28T02:18:16.917Z,85.2
2022-07-28T02:20:16.925Z,85.3
2022-07-28T02:22:16.910Z,85.3
2022-07-28T02:24:17.484Z,85.4
2022-07-28T02:26:16.918Z,85.7
2022-07-28T02:28:16.896Z,85.7
2022-07-28T02:30:16.944Z,86.0
2022-07-28T02:32:27.496Z,86.1
2022-07-28T02:34:17.166Z,86.5
2022-07-28T02:36:16.917Z,86.9
2022-07-28T02:38:16.955Z,87.1
2022-07-28T02:40:16.931Z,87.3
2022-07-28T02:42:16.925Z,87.5
2022-07-28T02:44:17.276Z,87.0
2022-07-28T02:46:16.959Z,86.6
2022-07-28T02:48:16.957Z,86.6
2022-07-28T02:50:16.932Z,86.7
2022-07-28T02:52:16.962Z,86.7
2022-07-28T02:54:17.377Z,87.0
2022-07-28T02:56:16.937Z,87.0
2022-07-28T02:58:16.926Z,86.9
2022-07-28T03:00:16.962Z,86.6
2022-07-28T03:02:16.963Z,86.7
2022-07-28T03:04:17.523Z,86.7
2022-07-28T03:06:16.927Z,86.7
2022-07-28T03:08:16.933Z,86.4
2022-07-28T03:10:16.928Z,86.3
2022-07-28T03:12:16.919Z,86.6
2022-07-28T03:14:17.239Z,86.6
2022-07-28T03:16:17.031Z,86.7
2022-07-28T03:18:16.949Z,86.8
2022-07-28T03:20:16.951Z,86.8
2022-07-28T03:22:16.942Z,86.9
2022-07-28T03:24:17.327Z,87.0
2022-07-28T03:26:16.966Z,87.2
2022-07-28T03:28:16.975Z,87.3
2022-07-28T03:30:16.995Z,87.3
2022-07-28T03:32:17.527Z,87.3
2022-07-28T03:34:17.740Z,87.6
2022-07-28T03:36:17.305Z,87.6
2022-07-28T03:38:17.777Z,87.5
2022-07-28T03:40:17.366Z,87.5
2022-07-28T03:42:17.311Z,87.5
2022-07-28T03:44:17.357Z,87.6
2022-07-28T03:46:17.391Z,87.5
2022-07-28T03:48:17.299Z,87.6
2022-07-28T03:50:17.384Z,87.7
2022-07-28T03:52:17.386Z,87.8
2022-07-28T03:54:17.667Z,87.8
2022-07-28T03:56:17.429Z,87.7
2022-07-28T03:58:17.386Z,87.7
2022-07-28T04:00:17.409Z,87.6
2022-07-28T04:02:17.439Z,87.5
2022-07-28T04:04:17.890Z,87.5
2022-07-28T04:06:17.073Z,87.5
2022-07-28T04:08:17.037Z,87.7
2022-07-28T04:10:17.053Z,87.5
2022-07-28T04:12:17.017Z,87.3
2022-07-28T04:14:17.273Z,87.1
2022-07-28T04:16:17.095Z,87.2
2022-07-28T04:18:17.032Z,87.5
2022-07-28T04:20:17.072Z,87.6
2022-07-28T04:22:17.040Z,87.7
2022-07-28T04:24:17.385Z,87.7
2022-07-28T04:26:17.003Z,87.7
2022-07-28T04:28:17.001Z,87.7
2022-07-28T04:30:16.991Z,87.9
2022-07-28T04:32:16.994Z,88.1
2022-07-28T04:34:17.354Z,88.2
2022-07-28T04:36:17.013Z,88.0
2022-07-28T04:38:17.003Z,87.9
2022-07-28T04:40:16.991Z,88.0
2022-07-28T04:42:17.015Z,88.0
2022-07-28T04:44:17.399Z,88.1
2022-07-28T04:46:17.054Z,88.6
2022-07-28T04:48:17.061Z,88.7
2022-07-28T04:50:17.038Z,88.8
2022-07-28T04:52:17.025Z,88.7
2022-07-28T04:54:17.401Z,88.0
2022-07-28T04:56:16.993Z,86.4
2022-07-28T04:58:17.036Z,85.5
2022-07-28T05:00:17.028Z,84.7
2022-07-28T05:02:17.066Z,83.7
2022-07-28T05:04:17.775Z,82.9
2022-07-28T05:06:17.100Z,82.0
2022-07-28T05:08:17.061Z,80.1
2022-07-28T05:10:17.098Z,79.6
2022-07-28T05:12:17.065Z,78.8
2022-07-28T05:14:17.365Z,77.7
2022-07-28T05:16:17.357Z,76.6
2022-07-28T05:18:17.111Z,75.1
2022-07-28T05:20:17.084Z,73.8
2022-07-28T05:22:17.161Z,72.8
2022-07-28T05:24:17.571Z,72.1
2022-07-28T05:26:17.163Z,71.3
2022-07-28T05:28:17.213Z,71.1
2022-07-28T05:30:17.107Z,70.7
2022-07-28T05:32:18.016Z,69.7
2022-07-28T05:34:17.447Z,68.9
2022-07-28T05:36:17.126Z,68.6
2022-07-28T05:38:17.117Z,68.6
2022-07-28T05:40:17.113Z,68.5
2022-07-28T05:42:17.111Z,68.0
2022-07-28T05:44:17.436Z,67.7
2022-07-28T05:46:17.186Z,66.7
2022-07-28T05:48:17.126Z,67.0
2022-07-28T05:50:17.374Z,68.0
2022-07-28T05:52:17.190Z,68.4
2022-07-28T05:54:17.479Z,68.1
2022-07-28T05:56:17.148Z,68.2
2022-07-28T05:58:17.109Z,68.5
2022-07-28T06:00:17.166Z,68.5
2022-07-28T06:02:17.175Z,68.3
2022-07-28T06:04:27.625Z,67.6
2022-07-28T06:06:17.181Z,67.0
2022-07-28T06:08:17.116Z,67.3
2022-07-28T06:10:17.137Z,65.6
2022-07-28T06:12:17.121Z,65.1
2022-07-28T06:14:17.826Z,64.5
2022-07-28T06:16:17.265Z,63.6
2022-07-28T06:18:17.155Z,62.0
2022-07-28T06:20:17.179Z,61.6
2022-07-28T06:22:17.159Z,62.8
2022-07-28T06:24:17.775Z,62.4
2022-07-28T06:26:17.140Z,62.7
2022-07-28T06:28:17.144Z,62.1
2022-07-28T06:30:17.156Z,60.7
2022-07-28T06:32:17.149Z,60.0
2022-07-28T06:34:17.507Z,60.0
2022-07-28T06:36:17.150Z,60.7
2022-07-28T06:38:17.152Z,61.1
2022-07-28T06:40:17.105Z,60.6
2022-07-28T06:42:17.124Z,59.7
2022-07-28T06:44:17.613Z,59.5
2022-07-28T06:46:17.355Z,59.1
2022-07-28T06:48:17.117Z,57.9
2022-07-28T06:50:25.730Z,58.5
2022-07-28T06:52:17.183Z,60.0
2022-07-28T06:54:17.491Z,59.3
2022-07-28T06:56:17.255Z,59.2
2022-07-28T06:58:17.201Z,57.8
2022-07-28T07:00:17.473Z,58.9
2022-07-28T07:02:17.467Z,59.0
2022-07-28T07:04:17.786Z,59.5
2022-07-28T07:06:17.320Z,57.8
2022-07-28T07:08:17.137Z,57.9
2022-07-28T07:10:17.156Z,57.7
2022-07-28T07:12:17.157Z,57.8
2022-07-28T07:14:17.410Z,56.6
2022-07-28T07:16:17.297Z,57.6
2022-07-28T07:18:17.162Z,56.4
2022-07-28T07:20:18.285Z,56.9
2022-07-28T07:22:17.179Z,55.5
2022-07-28T07:24:17.693Z,55.2
2022-07-28T07:26:17.153Z,54.5
2022-07-28T07:28:17.146Z,54.3
2022-07-28T07:30:17.193Z,54.1
2022-07-28T07:32:17.186Z,54.4
2022-07-28T07:34:17.662Z,52.3
2022-07-28T07:36:17.162Z,50.5
2022-07-28T07:38:17.192Z,51.2
2022-07-28T07:40:17.178Z,51.1
2022-07-28T07:42:17.165Z,49.6
2022-07-28T07:44:17.710Z,51.1
2022-07-28T07:46:17.277Z,51.6
2022-07-28T07:48:17.157Z,52.3
2022-07-28T07:50:17.170Z,51.7
2022-07-28T07:52:17.176Z,51.2
2022-07-28T07:54:17.825Z,51.5
2022-07-28T07:56:17.199Z,52.6
2022-07-28T07:58:17.204Z,51.8
2022-07-28T08:00:28.672Z,51.0
2022-07-28T08:02:17.245Z,51.4
2022-07-28T08:04:17.676Z,50.5
2022-07-28T08:06:17.342Z,51.0
2022-07-28T08:08:17.739Z,52.0
2022-07-28T08:10:17.275Z,49.9
2022-07-28T08:12:17.256Z,50.9
2022-07-28T08:14:18.025Z,48.6
2022-07-28T08:16:17.361Z,47.8
2022-07-28T08:18:17.258Z,48.2
2022-07-28T08:20:17.346Z,48.2
2022-07-28T08:22:17.260Z,47.6
2022-07-28T08:24:27.809Z,48.3
2022-07-28T08:26:17.291Z,49.1
2022-07-28T08:28:17.675Z,47.8
2022-07-28T08:30:23.002Z,46.5
2022-07-28T08:32:17.289Z,48.1
2022-07-28T08:34:26.527Z,47.6
2022-07-28T08:36:17.283Z,46.6
2022-07-28T08:38:17.264Z,47.4
2022-07-28T08:40:17.800Z,47.5
2022-07-28T08:42:17.352Z,49.0
2022-07-28T08:44:17.719Z,49.0
2022-07-28T08:46:17.338Z,48.8
2022-07-28T08:48:17.311Z,47.6
2022-07-28T08:50:17.357Z,46.5
2022-07-28T08:52:17.308Z,46.5
2022-07-28T08:54:17.760Z,45.2
2022-07-28T08:56:17.273Z,44.6
2022-07-28T08:58:17.286Z,44.8
2022-07-28T09:00:17.314Z,45.8
2022-07-28T09:02:17.517Z,45.1
2022-07-28T09:04:17.900Z,42.9
2022-07-28T09:06:17.345Z,44.7
2022-07-28T09:08:17.303Z,45.4
2022-07-28T09:10:17.315Z,44.9
2022-07-28T09:12:17.317Z,44.6
2022-07-28T09:14:17.628Z,44.7
2022-07-28T09:16:17.373Z,45.3
2022-07-28T09:18:17.313Z,44.0
2022-07-28T09:20:17.316Z,44.1
2022-07-28T09:22:17.337Z,43.0
2022-07-28T09:24:17.583Z,42.6
2022-07-28T09:26:17.331Z,42.9
2022-07-28T09:28:17.345Z,43.3
2022-07-28T09:30:17.325Z,42.8
2022-07-28T09:32:17.339Z,42.8
2022-07-28T09:34:17.715Z,43.6
2022-07-28T09:36:17.407Z,42.1
2022-07-28T09:38:17.340Z,42.1
2022-07-28T09:40:17.327Z,43.9
2022-07-28T09:42:17.371Z,42.0
2022-07-28T09:44:17.700Z,40.7
2022-07-28T09:46:17.653Z,41.1
2022-07-28T09:48:17.573Z,41.1
2022-07-28T09:50:17.379Z,41.2
2022-07-28T09:52:17.359Z,42.4
2022-07-28T09:54:17.834Z,41.4
2022-07-28T09:56:17.374Z,43.1
2022-07-28T09:58:17.350Z,41.6
2022-07-28T10:00:17.375Z,42.5
2022-07-28T10:02:17.458Z,41.3
2022-07-28T10:04:17.656Z,41.5
2022-07-28T10:06:17.364Z,41.1
2022-07-28T10:08:17.341Z,41.5
2022-07-28T10:10:17.445Z,42.2
2022-07-28T10:12:17.347Z,41.0
2022-07-28T10:14:17.818Z,40.9
2022-07-28T10:16:17.381Z,41.9
2022-07-28T10:18:17.381Z,40.9
2022-07-28T10:20:17.352Z,39.4
2022-07-28T10:22:17.346Z,39.1
2022-07-28T10:24:17.779Z,39.1
2022-07-28T10:26:17.360Z,39.2
2022-07-28T10:28:17.362Z,38.7
2022-07-28T10:30:17.388Z,39.5
2022-07-28T10:32:17.367Z,39.4
2022-07-28T10:34:17.724Z,39.5
2022-07-28T10:36:17.392Z,39.1
2022-07-28T10:38:17.391Z,40.4
2022-07-28T10:40:17.377Z,39.2
2022-07-28T10:42:17.394Z,39.3
2022-07-28T10:44:17.696Z,40.7
2022-07-28T10:46:17.491Z,40.6
2022-07-28T10:48:17.402Z,40.6
2022-07-28T10:50:17.383Z,39.4
2022-07-28T10:52:45.337Z,40.5
2022-07-28T10:54:24.866Z,40.9
2022-07-28T10:56:17.386Z,41.1
2022-07-28T10:58:17.400Z,41.6
2022-07-28T11:00:24.489Z,40.4
2022-07-28T11:02:17.513Z,40.8
2022-07-28T11:04:17.614Z,40.3
2022-07-28T11:06:17.437Z,40.1
2022-07-28T11:08:17.500Z,40.5
2022-07-28T11:10:17.433Z,40.2
2022-07-28T11:12:17.423Z,39.8
2022-07-28T11:14:17.714Z,39.0
2022-07-28T11:16:17.529Z,38.7
2022-07-28T11:18:17.449Z,39.4
2022-07-28T11:20:27.293Z,39.4
2022-07-28T11:22:18.397Z,39.5
2022-07-28T11:24:18.047Z,40.1
2022-07-28T11:26:17.396Z,39.6
2022-07-28T11:28:17.410Z,39.9
2022-07-28T11:30:17.395Z,39.6
2022-07-28T11:32:17.420Z,39.6
2022-07-28T11:34:17.872Z,39.6
2022-07-28T11:36:17.400Z,40.1
2022-07-28T11:38:17.413Z,39.7
2022-07-28T11:40:17.474Z,38.3
2022-07-28T11:42:17.408Z,39.1
2022-07-28T11:44:17.553Z,38.3
2022-07-28T11:46:17.488Z,38.9
2022-07-28T11:48:17.423Z,39.4
2022-07-28T11:50:17.431Z,38.2
2022-07-28T11:52:17.519Z,39.0
2022-07-28T11:54:17.705Z,37.4
2022-07-28T11:56:17.428Z,37.7
2022-07-28T11:58:17.402Z,37.5
2022-07-28T12:00:17.450Z,36.2
2022-07-28T12:02:17.557Z,36.1
2022-07-28T12:04:17.960Z,37.9
2022-07-28T12:06:17.452Z,38.1
2022-07-28T12:08:17.484Z,37.6
2022-07-28T12:10:37.101Z,37.2
2022-07-28T12:12:17.462Z,37.1
2022-07-28T12:14:18.074Z,37.6
2022-07-28T12:16:17.534Z,38.2
2022-07-28T12:18:17.484Z,37.5
2022-07-28T12:20:17.475Z,37.2
2022-07-28T12:22:17.498Z,36.0
2022-07-28T12:24:19.026Z,36.6
2022-07-28T12:26:17.516Z,35.9
2022-07-28T12:28:17.509Z,36.1
2022-07-28T12:30:17.494Z,37.4
2022-07-28T12:32:17.693Z,37.0
2022-07-28T12:34:17.800Z,37.0
2022-07-28T12:36:17.492Z,36.0
2022-07-28T12:38:17.513Z,36.1
2022-07-28T12:40:17.520Z,36.4
2022-07-28T12:42:17.499Z,36.4
2022-07-28T12:44:17.945Z,35.9
2022-07-28T12:46:17.619Z,35.4
2022-07-28T12:48:17.497Z,35.1
2022-07-28T12:50:17.524Z,35.0
2022-07-28T12:52:17.524Z,34.6
2022-07-28T12:54:18.059Z,34.9
2022-07-28T12:56:17.498Z,35.2
2022-07-28T12:58:17.528Z,35.9
2022-07-28T13:00:17.528Z,36.2
2022-07-28T13:02:17.757Z,35.5
2022-07-28T13:04:18.270Z,35.8
2022-07-28T13:06:17.668Z,36.0
2022-07-28T13:08:17.546Z,35.2
2022-07-28T13:10:17.560Z,35.3
2022-07-28T13:12:17.552Z,36.1
2022-07-28T13:14:18.116Z,36.1
2022-07-28T13:16:17.623Z,36.4
2022-07-28T13:18:17.709Z,36.0
2022-07-28T13:20:17.541Z,35.0
2022-07-28T13:22:17.624Z,35.5
2022-07-28T13:24:17.987Z,35.8
2022-07-28T13:26:17.655Z,35.4
2022-07-28T13:28:17.563Z,35.2
2022-07-28T13:30:22.609Z,35.2
2022-07-28T13:32:17.679Z,36.1
2022-07-28T13:34:17.965Z,36.9
2022-07-28T13:36:17.571Z,35.2
2022-07-28T13:38:17.564Z,36.1
2022-07-28T13:40:17.573Z,34.4
2022-07-28T13:42:17.566Z,35.2
2022-07-28T13:44:17.928Z,35.5
2022-07-28T13:46:17.664Z,35.0
2022-07-28T13:48:17.566Z,34.9
2022-07-28T13:50:18.161Z,34.5
2022-07-28T13:52:32.804Z,34.7
2022-07-28T13:54:18.121Z,35.7
2022-07-28T13:56:17.609Z,35.5
2022-07-28T13:58:17.606Z,36.6
2022-07-28T14:00:17.582Z,36.7
2022-07-28T14:02:17.907Z,34.7
2022-07-28T14:04:17.911Z,35.8
2022-07-28T14:06:17.584Z,34.7
2022-07-28T14:08:17.602Z,34.6
2022-07-28T14:10:17.609Z,33.4
2022-07-28T14:12:17.613Z,34.8
2022-07-28T14:14:19.940Z,34.1
2022-07-28T14:16:18.081Z,34.3
2022-07-28T14:18:17.665Z,33.9
2022-07-28T14:20:17.641Z,34.6
2022-07-28T14:22:17.675Z,33.2
2022-07-28T14:24:18.103Z,33.1
2022-07-28T14:26:35.374Z,33.7
2022-07-28T14:28:17.645Z,32.9
2022-07-28T14:30:17.626Z,33.7
2022-07-28T14:32:17.620Z,33.6
2022-07-28T14:34:18.337Z,33.9
2022-07-28T14:36:17.685Z,33.3
2022-07-28T14:38:54.534Z,33.6
2022-07-28T14:40:17.644Z,34.2
2022-07-28T14:42:17.623Z,35.5
2022-07-28T14:44:24.751Z,35.0
2022-07-28T14:46:21.412Z,34.9
2022-07-28T14:48:17.625Z,34.3
2022-07-28T14:50:17.627Z,34.1
2022-07-28T14:52:17.631Z,34.4
2022-07-28T14:54:18.201Z,33.9
2022-07-28T14:56:17.663Z,35.0
2022-07-28T14:58:17.691Z,33.3
2022-07-28T15:00:17.652Z,34.2
2022-07-28T15:02:17.861Z,34.3
2022-07-28T15:04:18.200Z,34.2
2022-07-28T15:06:17.668Z,34.1
2022-07-28T15:08:17.663Z,34.4
2022-07-28T15:10:17.657Z,34.0
2022-07-28T15:12:17.655Z,33.2
2022-07-28T15:14:20.377Z,33.6
2022-07-28T15:16:17.773Z,32.4
2022-07-28T15:18:17.685Z,32.8
2022-07-28T15:20:17.731Z,32.7
2022-07-28T15:22:17.654Z,32.9
2022-07-28T15:24:18.093Z,33.0
2022-07-28T15:26:17.684Z,33.3
2022-07-28T15:28:19.284Z,33.3
2022-07-28T15:30:17.693Z,33.3
2022-07-28T15:32:18.165Z,32.5
2022-07-28T15:34:18.325Z,32.9
2022-07-28T15:36:18.069Z,32.6
2022-07-28T15:38:18.028Z,32.5
2022-07-28T15:40:18.050Z,33.5
2022-07-28T15:42:18.123Z,32.8
2022-07-28T15:44:22.369Z,32.8
2022-07-28T15:46:18.148Z,34.0
2022-07-28T15:48:17.730Z,34.4
2022-07-28T15:50:17.710Z,33.8
2022-07-28T15:52:17.922Z,33.4
2022-07-28T15:54:18.257Z,34.2
2022-07-28T15:56:17.705Z,33.8
2022-07-28T15:58:17.872Z,33.9
2022-07-28T16:00:17.698Z,34.4
2022-07-28T16:02:18.133Z,34.0
2022-07-28T16:04:18.290Z,35.1
2022-07-28T16:06:17.713Z,35.0
2022-07-28T16:08:17.749Z,35.4
2022-07-28T16:10:17.907Z,34.9
2022-07-28T16:12:17.713Z,33.8
2022-07-28T16:14:18.474Z,34.6
2022-07-28T16:16:18.093Z,33.7
2022-07-28T16:18:17.702Z,34.0
2022-07-28T16:20:17.700Z,34.0
2022-07-28T16:22:17.703Z,34.9
2022-07-28T16:24:18.218Z,35.1
2022-07-28T16:26:17.710Z,34.3
2022-07-28T16:28:17.724Z,34.2
2022-07-28T16:30:17.784Z,34.5
2022-07-28T16:32:17.783Z,34.8
2022-07-28T16:34:18.108Z,34.7
2022-07-28T16:36:17.771Z,34.8
2022-07-28T16:38:17.808Z,34.7
2022-07-28T16:40:17.769Z,35.1
2022-07-28T16:42:17.834Z,34.4
2022-07-28T16:44:18.176Z,34.4
2022-07-28T16:46:17.837Z,34.5
2022-07-28T16:48:17.747Z,34.8
2022-07-28T16:50:17.745Z,35.4
2022-07-28T16:52:17.805Z,35.6
2022-07-28T16:54:18.346Z,35.5
2022-07-28T16:56:17.748Z,35.6
2022-07-28T16:58:17.712Z,35.1
2022-07-28T17:00:17.792Z,35.2
2022-07-28T17:02:18.007Z,35.1
2022-07-28T17:04:18.488Z,35.8
2022-07-28T17:06:17.778Z,35.0
2022-07-28T17:08:17.724Z,35.4
2022-07-28T17:10:21.020Z,36.0
2022-07-28T17:12:17.778Z,36.2
2022-07-28T17:14:18.134Z,35.4
2022-07-28T17:16:17.880Z,35.0
2022-07-28T17:18:18.634Z,35.0
2022-07-28T17:20:17.786Z,34.9
2022-07-28T17:22:17.780Z,35.4
2022-07-28T17:24:18.504Z,35.5
2022-07-28T17:27:37.344Z,36.0
2022-07-28T17:28:17.746Z,36.3
2022-07-28T17:30:17.759Z,36.1
2022-07-28T17:32:17.825Z,35.4
2022-07-28T17:34:18.289Z,35.8
2022-07-28T17:36:17.813Z,35.9
2022-07-28T17:38:17.854Z,35.5
2022-07-28T17:40:17.796Z,35.5
2022-07-28T17:42:17.767Z,35.6
2022-07-28T17:44:18.348Z,36.0
2022-07-28T17:46:17.868Z,36.2
2022-07-28T17:48:17.837Z,36.5
2022-07-28T17:50:17.777Z,36.9
2022-07-28T17:52:17.784Z,36.8
2022-07-28T17:54:18.253Z,37.3
2022-07-28T17:56:17.794Z,37.5
2022-07-28T17:58:17.846Z,37.8
2022-07-28T18:00:17.847Z,38.2
2022-07-28T18:02:17.969Z,38.3
2022-07-28T18:04:18.235Z,38.1
2022-07-28T18:06:17.854Z,38.0
2022-07-28T18:08:17.832Z,38.3
2022-07-28T18:10:17.829Z,38.4
2022-07-28T18:12:17.846Z,38.9
2022-07-28T18:14:18.296Z,39.2
2022-07-28T18:16:18.005Z,39.0
2022-07-28T18:18:17.824Z,39.1
2022-07-28T18:20:17.824Z,39.7
2022-07-28T18:22:17.825Z,39.7
2022-07-28T18:24:18.568Z,39.8
2022-07-28T18:26:17.843Z,40.1
2022-07-28T18:28:17.837Z,40.1
2022-07-28T18:30:18.074Z,40.2
2022-07-28T18:32:18.240Z,41.0
2022-07-28T18:34:18.604Z,41.3
2022-07-28T18:36:17.843Z,40.5
2022-07-28T18:38:17.840Z,40.9
2022-07-28T18:40:17.976Z,41.2
2022-07-28T18:42:17.896Z,41.8
2022-07-28T18:44:18.881Z,41.6
2022-07-28T18:46:18.025Z,42.2
2022-07-28T18:48:17.881Z,42.6
2022-07-28T18:50:31.125Z,43.0
2022-07-28T18:52:17.863Z,42.9
2022-07-28T18:54:27.127Z,43.5
2022-07-28T18:56:17.940Z,43.8
2022-07-28T18:58:17.868Z,44.0
2022-07-28T19:00:17.888Z,44.6
2022-07-28T19:02:18.041Z,44.3
2022-07-28T19:04:18.317Z,44.5
2022-07-28T19:06:17.896Z,44.5
2022-07-28T19:08:17.919Z,44.9
2022-07-28T19:10:17.881Z,44.7
2022-07-28T19:12:17.885Z,44.9
2022-07-28T19:14:18.480Z,45.3
2022-07-28T19:16:17.930Z,45.4
2022-07-28T19:18:17.927Z,46.0
2022-07-28T19:20:17.938Z,46.3
2022-07-28T19:22:18.665Z,46.5
2022-07-28T19:24:18.602Z,46.9
2022-07-28T19:26:23.117Z,47.1
2022-07-28T19:28:18.940Z,47.2
2022-07-28T19:30:18.503Z,47.9
2022-07-28T19:32:17.895Z,48.2
2022-07-28T19:34:18.962Z,48.6
2022-07-28T19:36:17.951Z,49.0
2022-07-28T19:38:18.870Z,49.3
2022-07-28T19:40:17.921Z,49.7
2022-07-28T19:42:18.010Z,49.9
2022-07-28T19:44:18.696Z,50.4
2022-07-28T19:46:18.297Z,50.7
2022-07-28T19:48:18.063Z,50.7
2022-07-28T19:50:18.194Z,50.9
2022-07-28T19:52:18.309Z,51.1
2022-07-28T19:54:18.574Z,51.1
2022-07-28T19:56:18.127Z,51.6
2022-07-28T19:58:22.939Z,52.0
2022-07-28T20:00:18.238Z,52.2
2022-07-28T20:02:19.308Z,52.3
2022-07-28T20:04:19.220Z,52.2
2022-07-28T20:06:24.647Z,52.1
2022-07-28T20:08:18.156Z,52.1
2022-07-28T20:10:18.505Z,52.5
2022-07-28T20:12:18.272Z,52.6
2022-07-28T20:14:18.644Z,52.7
2022-07-28T20:16:18.147Z,52.8
2022-07-28T20:18:17.945Z,53.1
2022-07-28T20:20:17.949Z,53.1
2022-07-28T20:22:18.005Z,53.5
2022-07-28T20:24:18.376Z,53.6
2022-07-28T20:26:18.132Z,53.8
2022-07-28T20:28:18.278Z,54.1
2022-07-28T20:30:18.168Z,54.5
2022-07-28T20:32:23.694Z,54.5
2022-07-28T20:34:18.788Z,54.7
2022-07-28T20:36:17.981Z,54.8
2022-07-28T20:38:17.979Z,55.0
2022-07-28T20:40:18.154Z,55.4
2022-07-28T20:42:18.068Z,55.8
2022-07-28T20:44:28.924Z,55.6
2022-07-28T20:46:18.115Z,56.0
2022-07-28T20:48:17.991Z,56.0
2022-07-28T20:50:18.040Z,56.3
2022-07-28T20:52:17.955Z,56.0
2022-07-28T20:54:18.310Z,56.2
2022-07-28T20:56:17.937Z,56.5
2022-07-28T20:58:19.412Z,56.9
2022-07-28T21:00:18.102Z,56.8
2022-07-28T21:02:18.244Z,57.0
2022-07-28T21:04:18.481Z,57.2
2022-07-28T21:06:18.156Z,57.2
2022-07-28T21:08:23.076Z,57.6
2022-07-28T21:10:18.229Z,57.7
2022-07-28T21:12:18.211Z,57.7
2022-07-28T21:14:18.681Z,57.7
2022-07-28T21:16:18.296Z,57.7
2022-07-28T21:18:18.010Z,57.8
2022-07-28T21:20:17.941Z,57.9
2022-07-28T21:22:18.276Z,58.2
2022-07-28T21:24:18.568Z,58.7
2022-07-28T21:26:18.006Z,58.7
2022-07-28T21:28:17.959Z,59.0
2022-07-28T21:30:18.081Z,59.2
2022-07-28T21:32:18.046Z,59.5
2022-07-28T21:34:18.150Z,59.8
2022-07-28T21:36:17.958Z,59.7
2022-07-28T21:38:18.013Z,60.3
2022-07-28T21:40:19.211Z,60.3
2022-07-28T21:42:18.193Z,60.5
2022-07-28T21:44:18.442Z,60.8
2022-07-28T21:46:18.289Z,60.9
2022-07-28T21:48:18.224Z,61.1
2022-07-28T21:50:18.415Z,61.3
2022-07-28T21:52:18.195Z,61.3
2022-07-28T21:54:18.419Z,61.4
2022-07-28T21:56:17.995Z,61.7
2022-07-28T21:58:18.115Z,62.0
2022-07-28T22:00:17.996Z,62.3
2022-07-28T22:02:18.120Z,62.5
2022-07-28T22:04:18.692Z,62.7
2022-07-28T22:06:18.031Z,62.9
2022-07-28T22:08:18.103Z,62.9
2022-07-28T22:10:18.033Z,63.3
2022-07-28T22:12:18.043Z,63.5
2022-07-28T22:14:18.652Z,63.6
2022-07-28T22:16:18.515Z,64.0
2022-07-28T22:18:18.498Z,64.5
2022-07-28T22:20:18.273Z,64.7
2022-07-28T22:22:18.087Z,64.7
2022-07-28T22:24:18.599Z,64.7
2022-07-28T22:26:18.032Z,64.9
2022-07-28T22:28:18.017Z,64.9
2022-07-28T22:30:18.055Z,65.1
2022-07-28T22:32:18.240Z,65.7
2022-07-28T22:34:18.369Z,65.8
2022-07-28T22:36:18.080Z,66.0
2022-07-28T22:38:18.075Z,66.2
2022-07-28T22:40:18.070Z,66.7
2022-07-28T22:42:18.069Z,67.1
2022-07-28T22:44:18.539Z,67.4
2022-07-28T22:46:18.211Z,67.4
2022-07-28T22:48:18.251Z,67.6
2022-07-28T22:50:18.084Z,67.8
2022-07-28T22:52:18.094Z,68.2
2022-07-28T22:54:18.364Z,68.5
2022-07-28T22:56:18.060Z,68.8
2022-07-28T22:58:18.084Z,68.6
2022-07-28T23:00:18.262Z,69.0
2022-07-28T23:02:18.176Z,69.1
2022-07-28T23:04:18.519Z,69.2
2022-07-28T23:06:18.189Z,69.7
2022-07-28T23:08:18.168Z,69.6
2022-07-28T23:10:18.125Z,69.4
2022-07-28T23:12:18.099Z,69.3
2022-07-28T23:14:18.469Z,69.2
2022-07-28T23:16:18.149Z,69.2
2022-07-28T23:18:18.112Z,69.0
2022-07-28T23:20:18.099Z,68.9
2022-07-28T23:22:18.102Z,68.9
2022-07-28T23:24:18.762Z,68.9
2022-07-28T23:26:18.104Z,68.8
2022-07-28T23:28:18.168Z,69.0
2022-07-28T23:30:18.071Z,69.0
2022-07-28T23:32:18.097Z,69.2
2022-07-28T23:34:18.761Z,69.4
2022-07-28T23:36:27.552Z,69.6
2022-07-28T23:38:18.103Z,69.8
2022-07-28T23:40:18.092Z,69.7
2022-07-28T23:42:18.106Z,69.9
2022-07-28T23:44:18.533Z,70.2
2022-07-28T23:46:18.178Z,70.5
2022-07-28T23:48:18.121Z,70.8
2022-07-28T23:50:18.114Z,70.9
2022-07-28T23:52:18.119Z,71.0
2022-07-28T23:54:18.442Z,71.1
2022-07-28T23:56:18.127Z,71.3
2022-07-28T23:58:18.182Z,71.6
